Terminal Aerodrome Forecast
Issued by NWS

Home | Current Version | Previous Version | Text Only | Print | Product List | Glossary On
Versions: 1 2 3 4 5 6 7 8 9 10 11 12 13 14 15 16 17 18 19 20 21 22 23 24
000
FTUS42 KJAX 270620 AAA
TAFVQQ
TAF AMD
KVQQ 270620Z 2706/2806 00000KT 3SM BR SCT020
      TEMPO 2707/2711 1/2SM FG BKN003
     FM271300 29005KT P6SM SCT025
     FM272000 12007KT P6SM SCT040=

USA.gov is the U.S. government's official web portal to all federal, state and local government web resources and services.